Huvudsida
METAR-TAF:

METAR-TAF

Flygplatser :

Niamey, Niger

latitud: 13-29N, longitud: 002-10E, höjd: 223 m

Aktuellt väderrapport

Denna rapport gjordes för 32 minuter sedan, klockan 00:00 UTC
Vind 2 kt varierande vindriktning
Temperatur 28°C
Fuktighet 27%
Tryck 1010 hPa
Sikt 10 km eller mer
Inga moln under 1 500 m eller inga cumulonimbus

METAR: DRRN 190000Z VRB02KT CAVOK 28/07 Q1010 NOSIG

Tid: 01:32 (00:32 UTC)

Väderprognos

Denna rapport gjordes för 1 timme och 32 minuter sedan, klockan 23:00 UTC
Prognos gäller från 19 kl. 00 UTC till 20 kl. 06 UTC
Vind 8 kt från nord/nordost
Sikt: 8000 m
Temporärt
från 19 kl. 06 UTC till 19 kl. 08 UTC
Sikt: 3500 m
utbrett stoft

TAF: DRRN 182300Z 1900/2006 02008KT 8000 NSC TEMPO 1906/1908 3500 DU

Aktuella väderrapporter och prognoser från 4000 flygplatser (METAR- och TAF-rapporter).

De tillgängliga stationerna syns som gula och röda prickar på kartan.

För musen över prickarna för att se namnen på stationerna.

Klicka sedan för att få väderrapporter och prognoser.

För att ändra kartan: Klicka på de gröna knapparna med ett svart kors på för att zooma in; den gröna knappen med ett streck på för att zooma ut; eller på de gröna pilarna för angränsande kartor.


METAR-TAF: